ARG395 SPJC-SCEL
Flight info
| Callsign | ARG395 |
|---|---|
| Flight time | N/A |
| Altitude | 39000 |
| Route | ILMAR UL302 ELASA UL650 ILSOT DCT DAT UV204 EMBAL UV208 SIMOK SIMOK7B |
| Aircraft | A343/H-SDE2E3FGHIJ4J5M1RWXY/LB1D1 |
Departure
| Time | 2026-05-04 12:07 |
|---|---|
| Airport | Jorge Chávez International Airport (SPJC) |
Arrival
| Time | N/A |
|---|---|
| Airport | Comodoro Arturo Merino Benítez International Airport (SCEL) |
| Time | Latitude | Longitude | Altitude | Speed | Heading |
|---|---|---|---|---|---|
| 2026-05-04 11:48 | -12.02670 | -77.10803 | 100 ft | 0 kts | 36° |
| 2026-05-04 11:59 | -12.02672 | -77.10804 | 99 ft | 3 kts | 36° |
| 2026-05-04 11:59 | -12.02693 | -77.10820 | 98 ft | 4 kts | 36° |
| 2026-05-04 11:59 | -12.02714 | -77.10837 | 100 ft | 4 kts | 56° |
| 2026-05-04 11:59 | -12.02721 | -77.10860 | 96 ft | 4 kts | 108° |
| 2026-05-04 12:00 | -12.02713 | -77.10872 | 99 ft | 0 kts | 154° |
| 2026-05-04 12:02 | -12.02766 | -77.10847 | 97 ft | 8 kts | 154° |
| 2026-05-04 12:03 | -12.02829 | -77.10815 | 98 ft | 12 kts | 156° |
| 2026-05-04 12:03 | -12.02909 | -77.10809 | 100 ft | 12 kts | 186° |
| 2026-05-04 12:03 | -12.02993 | -77.10816 | 103 ft | 13 kts | 178° |
| 2026-05-04 12:03 | -12.03082 | -77.10781 | 105 ft | 15 kts | 154° |
| 2026-05-04 12:04 | -12.03179 | -77.10732 | 107 ft | 16 kts | 154° |
| 2026-05-04 12:04 | -12.03284 | -77.10681 | 111 ft | 17 kts | 154° |
| 2026-05-04 12:04 | -12.03393 | -77.10628 | 113 ft | 17 kts | 155° |
| 2026-05-04 12:04 | -12.03494 | -77.10580 | 120 ft | 15 kts | 158° |
| 2026-05-04 12:05 | -12.03583 | -77.10603 | 126 ft | 13 kts | 227° |
| 2026-05-04 12:05 | -12.03601 | -77.10693 | 125 ft | 14 kts | 275° |
| 2026-05-04 12:05 | -12.03536 | -77.10770 | 124 ft | 16 kts | 339° |
| 2026-05-04 12:05 | -12.03428 | -77.10822 | 120 ft | 26 kts | 334° |
| 2026-05-04 12:06 | -12.03073 | -77.10996 | 111 ft | 87 kts | 334° |
| 2026-05-04 12:06 | -12.02365 | -77.11346 | 92 ft | 138 kts | 334° |
| 2026-05-04 12:06 | -12.01376 | -77.11834 | 152 ft | 172 kts | 334° |
| 2026-05-04 12:06 | -12.00253 | -77.12239 | 686 ft | 171 kts | 349° |
| 2026-05-04 12:07 | -11.99317 | -77.12992 | 1091 ft | 186 kts | 291° |
| 2026-05-04 12:07 | -11.99378 | -77.14348 | 1435 ft | 209 kts | 251° |
| 2026-05-04 12:07 | -12.00149 | -77.15726 | 1721 ft | 240 kts | 236° |
| 2026-05-04 12:07 | -12.01158 | -77.17186 | 2304 ft | 258 kts | 237° |
| 2026-05-04 12:08 | -12.02036 | -77.18813 | 2751 ft | 262 kts | 245° |
| 2026-05-04 12:08 | -12.02689 | -77.20568 | 2972 ft | 265 kts | 253° |
| 2026-05-04 12:08 | -12.03197 | -77.22382 | 2993 ft | 266 kts | 255° |
| 2026-05-04 12:08 | -12.03670 | -77.24214 | 2995 ft | 267 kts | 255° |
| 2026-05-04 12:09 | -12.04138 | -77.26051 | 2999 ft | 268 kts | 255° |
| 2026-05-04 12:09 | -12.04595 | -77.27867 | 2998 ft | 267 kts | 255° |
| 2026-05-04 12:09 | -12.04989 | -77.29079 | 2994 ft | 267 kts | 245° |
| 2026-05-04 12:09 | -12.06584 | -77.30919 | 3000 ft | 265 kts | 208° |
| 2026-05-04 12:10 | -12.08339 | -77.31378 | 3192 ft | 264 kts | 179° |
| 2026-05-04 12:10 | -12.10160 | -77.31060 | 3839 ft | 268 kts | 165° |
| 2026-05-04 12:10 | -12.11963 | -77.30544 | 4798 ft | 270 kts | 163° |
| 2026-05-04 12:10 | -12.13778 | -77.30012 | 5683 ft | 274 kts | 163° |
| 2026-05-04 12:11 | -12.15633 | -77.29473 | 6482 ft | 281 kts | 163° |
| 2026-05-04 12:11 | -12.16886 | -77.29112 | 6994 ft | 285 kts | 163° |
| 2026-05-04 12:11 | -12.18812 | -77.28560 | 7777 ft | 290 kts | 164° |
| 2026-05-04 12:11 | -12.20770 | -77.28001 | 8541 ft | 295 kts | 165° |
| 2026-05-04 12:12 | -12.22747 | -77.27438 | 9335 ft | 298 kts | 165° |
| 2026-05-04 12:12 | -12.24761 | -77.26865 | 10137 ft | 300 kts | 165° |
| 2026-05-04 12:12 | -12.26820 | -77.26279 | 10626 ft | 316 kts | 164° |
| 2026-05-04 12:12 | -12.28997 | -77.25660 | 10956 ft | 334 kts | 164° |
| 2026-05-04 12:13 | -12.31280 | -77.25011 | 11373 ft | 346 kts | 164° |
| 2026-05-04 12:14 | -12.48286 | -77.20168 | 15774 ft | 375 kts | 163° |
| 2026-05-04 12:15 | -12.50809 | -77.19449 | 16395 ft | 378 kts | 163° |
| 2026-05-04 12:15 | -12.53358 | -77.18723 | 17010 ft | 382 kts | 163° |
| 2026-05-04 12:15 | -12.55927 | -77.17990 | 17627 ft | 385 kts | 163° |
| 2026-05-04 12:15 | -12.58518 | -77.17252 | 18233 ft | 389 kts | 163° |
| 2026-05-04 12:16 | -12.61137 | -77.16504 | 18829 ft | 392 kts | 163° |
| 2026-05-04 12:16 | -12.63774 | -77.15751 | 19372 ft | 396 kts | 163° |
| 2026-05-04 12:16 | -12.66439 | -77.14991 | 19918 ft | 399 kts | 163° |
| 2026-05-04 12:16 | -12.69126 | -77.14224 | 20433 ft | 403 kts | 163° |
| 2026-05-04 12:17 | -12.71805 | -77.13340 | 20948 ft | 406 kts | 159° |
| 2026-05-04 12:17 | -12.74471 | -77.12347 | 21459 ft | 409 kts | 159° |
| 2026-05-04 12:17 | -12.77151 | -77.11323 | 21941 ft | 413 kts | 158° |
| 2026-05-04 12:17 | -12.79845 | -77.10271 | 22409 ft | 416 kts | 158° |
| 2026-05-04 12:18 | -12.82555 | -77.09200 | 22864 ft | 419 kts | 158° |
| 2026-05-04 12:18 | -12.85285 | -77.08115 | 23319 ft | 423 kts | 158° |
| 2026-05-04 12:18 | -12.88002 | -77.07034 | 23751 ft | 426 kts | 158° |
| 2026-05-04 12:18 | -12.90773 | -77.05930 | 24178 ft | 429 kts | 158° |
| 2026-05-04 12:19 | -12.93568 | -77.04818 | 24577 ft | 433 kts | 158° |
| 2026-05-04 12:19 | -12.96387 | -77.03698 | 24977 ft | 436 kts | 158° |
| 2026-05-04 12:19 | -12.99229 | -77.02568 | 25339 ft | 440 kts | 158° |
| 2026-05-04 12:19 | -13.02101 | -77.01426 | 25720 ft | 444 kts | 158° |
| 2026-05-04 12:20 | -13.04993 | -77.00277 | 26103 ft | 447 kts | 158° |
| 2026-05-04 12:20 | -13.07907 | -76.99119 | 26472 ft | 451 kts | 159° |
| 2026-05-04 12:20 | -13.10843 | -76.97953 | 26827 ft | 454 kts | 159° |
| 2026-05-04 12:20 | -13.13800 | -76.96778 | 27182 ft | 457 kts | 159° |
| 2026-05-04 12:21 | -13.16777 | -76.95594 | 27508 ft | 461 kts | 159° |
| 2026-05-04 12:21 | -13.19778 | -76.94400 | 27844 ft | 464 kts | 159° |
| 2026-05-04 12:21 | -13.22796 | -76.93198 | 28177 ft | 467 kts | 159° |
| 2026-05-04 12:21 | -13.25836 | -76.91987 | 28466 ft | 470 kts | 159° |
| 2026-05-04 12:22 | -13.28894 | -76.90769 | 28774 ft | 473 kts | 159° |
| 2026-05-04 12:22 | -13.31976 | -76.89543 | 29086 ft | 476 kts | 159° |
| 2026-05-04 12:22 | -13.35068 | -76.88311 | 29356 ft | 479 kts | 159° |
| 2026-05-04 12:22 | -13.38186 | -76.87069 | 29644 ft | 482 kts | 159° |
| 2026-05-04 12:23 | -13.41322 | -76.85819 | 29925 ft | 484 kts | 159° |
| 2026-05-04 12:23 | -13.44466 | -76.84565 | 30192 ft | 487 kts | 159° |
| 2026-05-04 12:23 | -13.47634 | -76.83303 | 30480 ft | 489 kts | 159° |
| 2026-05-04 12:23 | -13.50816 | -76.82032 | 30726 ft | 492 kts | 159° |
| 2026-05-04 12:24 | -13.54011 | -76.80757 | 30965 ft | 494 kts | 159° |
| 2026-05-04 12:24 | -13.57229 | -76.79472 | 31210 ft | 497 kts | 159° |
| 2026-05-04 12:24 | -13.60458 | -76.78184 | 31445 ft | 499 kts | 159° |
| 2026-05-04 12:24 | -13.63702 | -76.76888 | 31659 ft | 502 kts | 159° |
| 2026-05-04 12:25 | -13.66965 | -76.75583 | 31891 ft | 504 kts | 159° |
| 2026-05-04 12:25 | -13.70239 | -76.74275 | 32189 ft | 504 kts | 159° |
| 2026-05-04 12:25 | -13.73510 | -76.72968 | 32523 ft | 504 kts | 159° |
| 2026-05-04 12:25 | -13.76777 | -76.71662 | 32824 ft | 504 kts | 159° |
| 2026-05-04 12:26 | -13.80047 | -76.70355 | 33120 ft | 504 kts | 159° |
| 2026-05-04 12:26 | -13.83314 | -76.69047 | 33401 ft | 504 kts | 159° |
| 2026-05-04 12:26 | -13.86583 | -76.67738 | 33669 ft | 504 kts | 159° |
| 2026-05-04 12:26 | -13.89851 | -76.66430 | 33971 ft | 504 kts | 159° |
| 2026-05-04 12:27 | -13.93118 | -76.65123 | 34240 ft | 504 kts | 159° |
| 2026-05-04 12:27 | -13.96385 | -76.63814 | 34514 ft | 503 kts | 159° |
| 2026-05-04 12:27 | -13.99638 | -76.62509 | 34856 ft | 501 kts | 159° |
| 2026-05-04 12:27 | -14.02885 | -76.61206 | 35158 ft | 500 kts | 159° |
| 2026-05-04 12:28 | -14.06124 | -76.59907 | 35437 ft | 499 kts | 159° |
| 2026-05-04 12:28 | -14.09361 | -76.58609 | 35709 ft | 499 kts | 159° |
| 2026-05-04 12:28 | -14.12548 | -76.57330 | 35985 ft | 497 kts | 159° |
| 2026-05-04 12:28 | -14.15767 | -76.56038 | 36260 ft | 496 kts | 159° |
| 2026-05-04 12:29 | -14.18985 | -76.54746 | 36503 ft | 496 kts | 159° |
| 2026-05-04 12:29 | -14.22198 | -76.53456 | 36754 ft | 495 kts | 159° |
| 2026-05-04 12:29 | -14.25397 | -76.52170 | 37007 ft | 493 kts | 159° |
| 2026-05-04 12:29 | -14.28652 | -76.51077 | 37288 ft | 490 kts | 165° |
| 2026-05-04 12:30 | -14.31922 | -76.50125 | 37595 ft | 487 kts | 166° |
| 2026-05-04 12:30 | -14.35183 | -76.49212 | 37887 ft | 484 kts | 166° |
| 2026-05-04 12:30 | -14.38432 | -76.48325 | 38158 ft | 482 kts | 166° |
| 2026-05-04 12:30 | -14.41673 | -76.47450 | 38376 ft | 481 kts | 167° |
| 2026-05-04 12:31 | -14.44911 | -76.46578 | 38550 ft | 481 kts | 167° |
| 2026-05-04 12:31 | -14.48144 | -76.45706 | 38742 ft | 480 kts | 167° |
| 2026-05-04 12:31 | -14.51371 | -76.44833 | 38907 ft | 480 kts | 167° |
| 2026-05-04 12:31 | -14.54607 | -76.43955 | 38969 ft | 482 kts | 167° |
| 2026-05-04 12:32 | -14.64322 | -76.41310 | 38978 ft | 480 kts | 167° |
| 2026-05-04 12:33 | -14.70773 | -76.39550 | 38982 ft | 479 kts | 167° |
| 2026-05-04 12:33 | -14.77217 | -76.37791 | 38982 ft | 479 kts | 167° |
| 2026-05-04 12:34 | -14.83669 | -76.36030 | 38979 ft | 479 kts | 167° |
| 2026-05-04 12:34 | -14.90110 | -76.34270 | 38981 ft | 479 kts | 167° |
| 2026-05-04 12:35 | -14.96552 | -76.32510 | 38992 ft | 479 kts | 167° |
| 2026-05-04 12:35 | -15.02997 | -76.30748 | 38992 ft | 479 kts | 167° |
| 2026-05-04 12:36 | -15.09433 | -76.28986 | 38990 ft | 478 kts | 167° |
| 2026-05-04 12:36 | -15.15820 | -76.27237 | 38988 ft | 478 kts | 167° |
| 2026-05-04 12:37 | -15.22253 | -76.25478 | 38997 ft | 478 kts | 167° |
| 2026-05-04 12:37 | -15.28679 | -76.23713 | 38996 ft | 477 kts | 167° |
| 2026-05-04 12:38 | -15.35101 | -76.21951 | 38999 ft | 477 kts | 167° |
| 2026-05-04 12:38 | -15.41512 | -76.20192 | 39049 ft | 477 kts | 168° |
| 2026-05-04 12:39 | -15.47932 | -76.18431 | 39118 ft | 476 kts | 168° |
| 2026-05-04 12:39 | -15.54336 | -76.16671 | 39120 ft | 476 kts | 168° |
| 2026-05-04 12:40 | -15.60734 | -76.14909 | 39128 ft | 476 kts | 168° |
| 2026-05-04 12:40 | -15.67138 | -76.13147 | 39139 ft | 476 kts | 168° |
| 2026-05-04 12:41 | -15.73537 | -76.11385 | 39138 ft | 475 kts | 168° |
| 2026-05-04 12:41 | -15.79933 | -76.09623 | 39143 ft | 475 kts | 168° |
| 2026-05-04 12:42 | -15.86284 | -76.07872 | 39148 ft | 476 kts | 168° |
| 2026-05-04 12:42 | -15.92677 | -76.06110 | 39155 ft | 475 kts | 168° |
| 2026-05-04 12:43 | -15.99068 | -76.04345 | 39154 ft | 475 kts | 168° |
| 2026-05-04 12:43 | -16.05453 | -76.02580 | 39164 ft | 475 kts | 168° |
| 2026-05-04 12:44 | -16.11843 | -76.00813 | 39166 ft | 475 kts | 168° |
| 2026-05-04 12:44 | -16.18230 | -75.99044 | 39175 ft | 475 kts | 168° |
| 2026-05-04 12:45 | -16.24619 | -75.97276 | 39174 ft | 475 kts | 168° |
| 2026-05-04 12:45 | -16.31006 | -75.95508 | 39183 ft | 475 kts | 168° |
| 2026-05-04 12:46 | -16.37393 | -75.93738 | 39183 ft | 475 kts | 168° |
| 2026-05-04 12:46 | -16.43794 | -75.91961 | 39145 ft | 476 kts | 168° |
| 2026-05-04 12:47 | -16.50186 | -75.90186 | 39128 ft | 476 kts | 168° |
| 2026-05-04 12:47 | -16.56539 | -75.88421 | 39136 ft | 476 kts | 168° |
| 2026-05-04 12:48 | -16.62938 | -75.86644 | 39179 ft | 476 kts | 168° |
| 2026-05-04 12:48 | -16.69343 | -75.84861 | 39182 ft | 476 kts | 168° |
| 2026-05-04 12:49 | -16.75747 | -75.83079 | 39183 ft | 477 kts | 168° |
| 2026-05-04 12:49 | -16.82154 | -75.81296 | 39183 ft | 477 kts | 168° |
| 2026-05-04 12:50 | -16.88565 | -75.79510 | 39182 ft | 477 kts | 168° |
| 2026-05-04 12:50 | -16.94973 | -75.77721 | 39183 ft | 477 kts | 168° |
| 2026-05-04 12:51 | -17.01386 | -75.75931 | 39186 ft | 478 kts | 168° |
| 2026-05-04 12:51 | -17.07816 | -75.74134 | 39198 ft | 478 kts | 168° |
| 2026-05-04 12:52 | -17.14238 | -75.72340 | 39200 ft | 478 kts | 168° |
| 2026-05-04 12:52 | -17.20660 | -75.70544 | 39189 ft | 478 kts | 168° |
| 2026-05-04 12:53 | -17.26979 | -75.68317 | 39155 ft | 482 kts | 160° |
| 2026-05-04 12:53 | -17.33130 | -75.65513 | 39109 ft | 483 kts | 159° |
| 2026-05-04 12:54 | -17.39250 | -75.62596 | 39112 ft | 483 kts | 159° |
| 2026-05-04 12:54 | -17.45366 | -75.59666 | 39118 ft | 484 kts | 159° |
| 2026-05-04 12:55 | -17.51458 | -75.56761 | 39119 ft | 484 kts | 159° |
| 2026-05-04 12:55 | -17.57588 | -75.53845 | 39119 ft | 484 kts | 159° |
| 2026-05-04 12:56 | -17.63718 | -75.50930 | 39119 ft | 484 kts | 159° |
| 2026-05-04 12:56 | -17.69846 | -75.48013 | 39127 ft | 484 kts | 159° |
| 2026-05-04 12:57 | -17.75982 | -75.45093 | 39131 ft | 484 kts | 159° |
| 2026-05-04 12:57 | -17.82112 | -75.42152 | 39129 ft | 484 kts | 158° |
| 2026-05-04 12:58 | -17.88224 | -75.39219 | 39128 ft | 484 kts | 159° |
| 2026-05-04 12:58 | -17.94377 | -75.36300 | 39132 ft | 485 kts | 159° |
| 2026-05-04 12:59 | -18.00518 | -75.33377 | 39128 ft | 484 kts | 159° |
| 2026-05-04 12:59 | -18.05615 | -75.30943 | 39141 ft | 484 kts | 159° |
| 2026-05-04 13:00 | -18.11751 | -75.28004 | 39137 ft | 485 kts | 159° |